createdAt,value
2022-09-26T00:01:35.839Z,9.20
2022-09-26T00:04:11.355Z,9.18
2022-09-26T00:06:39.457Z,9.15
2022-09-26T00:09:07.102Z,9.12
2022-09-26T00:11:34.875Z,9.06
2022-09-26T00:14:07.545Z,9.00
2022-09-26T00:16:35.423Z,8.96
2022-09-26T00:19:04.075Z,8.94
2022-09-26T00:21:32.009Z,8.92
2022-09-26T00:24:00.915Z,8.91
2022-09-26T00:26:31.121Z,8.90
2022-09-26T00:29:01.466Z,8.89
2022-09-26T00:31:32.185Z,8.87
2022-09-26T00:33:59.908Z,8.84
2022-09-26T00:36:37.522Z,8.80
2022-09-26T00:39:12.517Z,8.77
2022-09-26T00:41:40.258Z,8.75
2022-09-26T00:44:50.098Z,8.74
2022-09-26T00:47:49.620Z,8.71
2022-09-26T00:50:23.926Z,8.69
2022-09-26T00:53:01.922Z,8.64
2022-09-26T00:55:36.337Z,8.62
2022-09-26T00:58:10.104Z,8.58
2022-09-26T01:00:42.563Z,8.54
2022-09-26T01:03:10.527Z,8.51
2022-09-26T01:05:38.829Z,8.49
2022-09-26T01:08:07.937Z,8.50
2022-09-26T01:10:36.520Z,8.50
2022-09-26T01:13:05.290Z,8.50
2022-09-26T01:15:34.491Z,8.48
2022-09-26T01:18:02.700Z,8.45
2022-09-26T01:20:53.946Z,8.41
2022-09-26T01:23:41.858Z,8.36
2022-09-26T01:26:09.432Z,8.33
2022-09-26T01:29:08.981Z,8.30
2022-09-26T01:32:19.138Z,8.32
2022-09-26T01:35:13.040Z,8.37
2022-09-26T01:37:43.534Z,8.41
2022-09-26T01:40:22.311Z,8.42
2022-09-26T01:43:05.782Z,8.43
2022-09-26T01:45:46.324Z,8.45
2022-09-26T01:48:20.457Z,8.46
2022-09-26T01:50:57.646Z,8.47
2022-09-26T01:53:33.288Z,8.49
2022-09-26T01:56:12.108Z,8.49
2022-09-26T01:58:46.011Z,8.48
2022-09-26T02:01:18.936Z,8.46
2022-09-26T02:03:51.971Z,8.44
2022-09-26T02:06:28.560Z,8.42
2022-09-26T02:09:21.011Z,8.40
2022-09-26T02:11:50.970Z,8.35
2022-09-26T02:14:31.372Z,8.32
2022-09-26T02:17:13.294Z,8.31
2022-09-26T02:19:56.813Z,8.30
2022-09-26T02:22:27.754Z,8.30
2022-09-26T02:24:55.412Z,8.29
2022-09-26T02:27:24.914Z,8.28
2022-09-26T02:29:52.863Z,8.26
2022-09-26T02:32:40.111Z,8.23
2022-09-26T02:35:35.635Z,8.17
2022-09-26T02:38:05.664Z,8.16
2022-09-26T02:40:46.816Z,8.16
2022-09-26T02:43:57.481Z,8.17
2022-09-26T02:46:53.880Z,8.18
2022-09-26T02:49:32.600Z,8.19
2022-09-26T02:52:32.160Z,8.19
2022-09-26T02:55:17.499Z,8.17
2022-09-26T02:58:17.039Z,8.17
2022-09-26T03:01:01.063Z,8.15
2022-09-26T03:03:59.541Z,8.14
2022-09-26T03:06:35.269Z,8.13
2022-09-26T03:09:04.886Z,8.15
2022-09-26T03:11:35.234Z,8.17
2022-09-26T03:14:04.512Z,8.19
2022-09-26T03:16:37.977Z,8.20
2022-09-26T03:19:08.417Z,8.21
2022-09-26T03:21:37.320Z,8.20
2022-09-26T03:24:05.171Z,8.18
2022-09-26T03:26:34.591Z,8.17
2022-09-26T03:29:02.313Z,8.16
2022-09-26T03:31:31.300Z,8.16
2022-09-26T03:33:58.916Z,8.16
2022-09-26T03:36:27.925Z,8.17
2022-09-26T03:38:55.644Z,8.16
2022-09-26T03:41:24.439Z,8.16
2022-09-26T03:43:52.815Z,8.14
2022-09-26T03:46:20.396Z,8.12
2022-09-26T03:48:49.866Z,8.11
2022-09-26T03:51:18.144Z,8.12
2022-09-26T03:53:47.312Z,8.14
2022-09-26T03:56:18.083Z,8.16
2022-09-26T03:58:47.153Z,8.17
2022-09-26T04:01:17.468Z,8.18
2022-09-26T04:03:50.510Z,8.19
2022-09-26T04:06:21.054Z,8.16
2022-09-26T04:08:51.346Z,8.12
2022-09-26T04:11:24.452Z,8.10
2022-09-26T04:13:53.806Z,8.09
2022-09-26T04:16:24.222Z,8.09
2022-09-26T04:18:59.789Z,8.07
2022-09-26T04:21:28.613Z,8.08
2022-09-26T04:23:56.372Z,8.07
2022-09-26T04:26:24.729Z,8.05
2022-09-26T04:28:55.890Z,8.02
2022-09-26T04:31:27.988Z,7.98
2022-09-26T04:33:55.643Z,7.96
2022-09-26T04:36:24.876Z,7.96
2022-09-26T04:38:52.492Z,7.98
2022-09-26T04:41:21.876Z,7.98
2022-09-26T04:43:49.617Z,8.01
2022-09-26T04:46:24.510Z,8.06
2022-09-26T04:48:58.142Z,8.09
2022-09-26T04:51:28.027Z,8.14
2022-09-26T04:53:56.275Z,8.19
2022-09-26T04:56:27.502Z,8.24
2022-09-26T04:58:57.132Z,8.30
2022-09-26T05:01:25.908Z,8.38
2022-09-26T05:03:55.580Z,8.47
2022-09-26T05:06:23.265Z,8.59
2022-09-26T05:08:50.953Z,8.68
2022-09-26T05:11:19.778Z,8.76
2022-09-26T05:13:53.668Z,8.85
2022-09-26T05:16:22.738Z,8.94
2022-09-26T05:18:52.133Z,9.01
2022-09-26T05:21:20.469Z,9.09
2022-09-26T05:24:03.999Z,9.18
2022-09-26T05:26:42.101Z,9.28
2022-09-26T05:29:10.490Z,9.36
2022-09-26T05:31:39.876Z,9.45
2022-09-26T05:34:19.250Z,9.53
2022-09-26T05:36:47.919Z,9.60
2022-09-26T05:39:35.861Z,9.67
2022-09-26T05:42:09.385Z,9.76
2022-09-26T05:59:44.601Z,10.66
2022-09-26T06:02:20.576Z,10.91
2022-09-26T06:04:49.407Z,10.97
2022-09-26T06:07:17.233Z,11.02
2022-09-26T06:09:45.715Z,11.06
2022-09-26T06:12:13.498Z,11.09
2022-09-26T06:14:46.803Z,11.13
2022-09-26T06:17:15.101Z,11.16
2022-09-26T06:19:43.101Z,11.18
2022-09-26T06:22:12.228Z,11.22
2022-09-26T06:24:40.422Z,11.25
2022-09-26T06:27:08.329Z,11.29
2022-09-26T06:31:37.779Z,11.41
2022-09-26T06:34:07.697Z,11.44
2022-09-26T06:36:36.438Z,11.48
2022-09-26T06:39:05.320Z,11.56
2022-09-26T06:41:35.053Z,11.65
2022-09-26T06:44:03.227Z,11.74
2022-09-26T06:46:31.306Z,11.81
2022-09-26T06:48:59.105Z,11.88
2022-09-26T06:51:28.780Z,11.98
2022-09-26T06:53:56.377Z,12.10
2022-09-26T06:56:24.001Z,12.18
2022-09-26T06:58:51.624Z,12.28
2022-09-26T07:01:22.845Z,12.38
2022-09-26T07:03:54.346Z,12.46
2022-09-26T07:06:22.445Z,12.55
2022-09-26T07:09:12.059Z,12.67
2022-09-26T07:12:10.042Z,12.82
2022-09-26T07:14:28.873Z,13.00
2022-09-26T07:16:56.446Z,13.14
2022-09-26T07:19:24.094Z,13.27
2022-09-26T07:21:51.686Z,13.41
2022-09-26T07:24:19.616Z,13.55
2022-09-26T07:26:47.569Z,13.70
2022-09-26T07:29:15.282Z,13.84
2022-09-26T07:31:43.504Z,13.99
2022-09-26T07:34:15.814Z,14.13
2022-09-26T07:36:47.261Z,14.26
2022-09-26T07:39:15.733Z,14.40
2022-09-26T07:41:46.736Z,14.52
2022-09-26T07:47:19.984Z,14.70
2022-09-26T07:50:02.598Z,14.80
2022-09-26T07:52:30.927Z,14.94
2022-09-26T07:54:58.623Z,15.10
2022-09-26T07:57:26.304Z,15.23
2022-09-26T07:59:54.335Z,15.32
2022-09-26T08:02:23.580Z,15.38
2022-09-26T08:04:58.859Z,15.44
2022-09-26T08:07:28.504Z,15.54
2022-09-26T08:09:56.981Z,15.67
2022-09-26T08:12:27.180Z,15.80
2022-09-26T08:14:56.201Z,15.91
2022-09-26T08:17:24.310Z,15.94
2022-09-26T08:19:52.056Z,15.91
2022-09-26T08:22:19.678Z,15.86
2022-09-26T08:24:49.710Z,15.82
2022-09-26T08:27:18.289Z,15.77
2022-09-26T08:29:49.646Z,15.77
2022-09-26T08:32:20.826Z,15.78
2022-09-26T08:34:50.015Z,15.88
2022-09-26T08:37:17.634Z,16.04
2022-09-26T08:39:45.308Z,16.20
2022-09-26T08:42:36.368Z,16.37
2022-09-26T08:45:51.859Z,16.61
2022-09-26T08:48:37.225Z,16.90
2022-09-26T08:51:42.515Z,17.10
2022-09-26T08:54:18.141Z,17.38
2022-09-26T08:57:05.953Z,17.60
2022-09-26T08:59:43.488Z,17.86
2022-09-26T09:02:30.279Z,18.12
2022-09-26T09:05:08.817Z,18.43
2022-09-26T09:07:36.521Z,18.69
2022-09-26T09:10:16.119Z,18.84
2022-09-26T09:12:49.912Z,19.00
2022-09-26T09:15:51.602Z,19.23
2022-09-26T09:44:46.771Z,21.14
2022-09-26T09:47:18.542Z,21.37
2022-09-26T09:49:48.820Z,21.50
2022-09-26T09:52:31.820Z,21.70
2022-09-26T09:55:19.889Z,21.93
2022-09-26T09:57:53.619Z,21.92
2022-09-26T10:00:24.463Z,21.90
2022-09-26T10:03:11.468Z,22.05
2022-09-26T10:05:51.767Z,22.19
2022-09-26T10:08:25.472Z,22.34
2022-09-26T10:11:25.075Z,22.59
2022-09-26T10:14:00.089Z,22.68
2022-09-26T10:16:28.404Z,22.61
2022-09-26T10:19:04.364Z,22.62
2022-09-26T10:21:41.066Z,22.59
2022-09-26T10:24:39.018Z,22.67
2022-09-26T10:27:26.121Z,22.73
2022-09-26T10:30:02.918Z,22.70
2022-09-26T10:32:46.292Z,22.57
2022-09-26T10:35:30.403Z,22.61
2022-09-26T10:38:06.676Z,22.55
2022-09-26T10:40:54.203Z,22.39
2022-09-26T10:43:24.153Z,22.48
2022-09-26T10:46:03.473Z,22.41
2022-09-26T10:48:46.333Z,22.31
2022-09-26T10:51:29.856Z,22.29
2022-09-26T10:54:07.659Z,22.39
2022-09-26T10:56:48.450Z,22.48
2022-09-26T10:59:19.420Z,22.71
2022-09-26T11:02:03.846Z,22.90
2022-09-26T11:07:37.398Z,23.08
2022-09-26T11:10:11.590Z,23.10
2022-09-26T11:13:03.044Z,23.26
2022-09-26T11:15:31.029Z,23.29
2022-09-26T11:17:59.396Z,23.30
2022-09-26T11:20:53.639Z,23.13
2022-09-26T11:23:27.502Z,23.26
2022-09-26T11:26:18.859Z,23.38
2022-09-26T11:28:56.181Z,23.59
2022-09-26T11:31:30.593Z,23.64
2022-09-26T11:34:03.245Z,23.51
2022-09-26T11:37:10.196Z,23.14
2022-09-26T11:39:40.811Z,22.56
2022-09-26T11:42:26.092Z,22.21
2022-09-26T11:44:58.821Z,21.91
2022-09-26T11:47:42.926Z,21.99
2022-09-26T11:50:41.750Z,22.52
2022-09-26T11:53:42.654Z,23.18
2022-09-26T11:56:36.273Z,23.58
2022-09-26T11:59:23.211Z,23.30
2022-09-26T12:09:11.955Z,22.44
2022-09-26T12:15:22.094Z,22.95
2022-09-26T12:18:21.935Z,23.34
2022-09-26T12:21:12.207Z,23.18
2022-09-26T12:23:42.503Z,23.21
2022-09-26T12:26:35.887Z,23.26
2022-09-26T12:29:38.260Z,23.91
2022-09-26T12:32:27.646Z,24.56
2022-09-26T12:35:19.756Z,25.12
2022-09-26T12:38:20.468Z,25.66
2022-09-26T12:41:19.999Z,26.34
2022-09-26T12:44:28.448Z,26.99
2022-09-26T12:47:04.909Z,27.28
2022-09-26T12:49:49.468Z,27.02
2022-09-26T12:52:39.307Z,26.97
2022-09-26T12:55:32.556Z,26.78
2022-09-26T12:58:34.846Z,26.35
2022-09-26T13:01:18.702Z,26.44
2022-09-26T13:03:52.716Z,26.75
2022-09-26T13:06:57.254Z,27.10
2022-09-26T13:10:05.358Z,27.38
2022-09-26T13:13:22.421Z,27.69
2022-09-26T13:16:25.554Z,28.08
2022-09-26T13:19:05.295Z,28.04
2022-09-26T13:21:59.336Z,27.32
2022-09-26T13:24:47.302Z,27.11
2022-09-26T13:27:22.325Z,26.95
2022-09-26T13:30:00.793Z,26.49
2022-09-26T13:32:36.903Z,26.05
2022-09-26T13:35:22.540Z,25.57
2022-09-26T13:38:09.184Z,25.84
2022-09-26T13:40:55.703Z,26.45
2022-09-26T13:43:44.054Z,26.65
2022-09-26T13:46:28.666Z,26.84
2022-09-26T13:49:02.217Z,27.25
2022-09-26T13:51:49.392Z,27.71
2022-09-26T13:54:27.239Z,28.33
2022-09-26T13:56:55.942Z,28.95
2022-09-26T13:59:32.749Z,29.28
2022-09-26T14:02:24.939Z,28.99
2022-09-26T14:05:13.604Z,29.01
2022-09-26T14:07:57.040Z,29.00
2022-09-26T14:10:35.863Z,28.57
2022-09-26T14:13:32.189Z,28.73
2022-09-26T14:16:36.105Z,29.27
2022-09-26T14:19:25.406Z,30.04
2022-09-26T14:22:25.040Z,30.41
2022-09-26T14:24:53.913Z,29.92
2022-09-26T14:27:41.521Z,29.24
2022-09-26T14:30:29.604Z,28.47
2022-09-26T14:33:04.888Z,27.72
2022-09-26T14:35:35.926Z,27.22
2022-09-26T14:38:17.164Z,26.86
2022-09-26T14:41:01.002Z,26.59
2022-09-26T14:43:31.311Z,26.69
2022-09-26T14:46:15.222Z,26.81
2022-09-26T14:48:44.434Z,26.86
2022-09-26T14:51:12.445Z,26.72
2022-09-26T14:53:52.297Z,26.64
2022-09-26T14:56:41.879Z,27.09
2022-09-26T14:59:25.497Z,27.67
2022-09-26T15:02:16.740Z,28.16
2022-09-26T15:04:50.340Z,28.20
2022-09-26T15:07:22.010Z,28.48
2022-09-26T15:09:52.465Z,28.78
2022-09-26T15:12:44.081Z,28.70
2022-09-26T15:15:37.210Z,28.34
2022-09-26T15:18:24.513Z,28.27
2022-09-26T15:21:55.222Z,27.72
2022-09-26T15:24:33.718Z,26.72
2022-09-26T15:27:12.393Z,25.89
2022-09-26T15:29:51.206Z,25.16
2022-09-26T15:32:28.977Z,24.46
2022-09-26T15:35:01.347Z,23.81
2022-09-26T15:37:32.618Z,23.24
2022-09-26T15:40:18.841Z,22.72
2022-09-26T15:43:02.934Z,22.20
2022-09-26T15:45:33.515Z,21.73
2022-09-26T15:48:23.915Z,21.34
2022-09-26T15:51:08.136Z,20.94
2022-09-26T15:53:50.319Z,20.58
2022-09-26T15:56:37.188Z,20.26
2022-09-26T15:59:23.535Z,19.95
2022-09-26T16:01:52.514Z,19.64
2022-09-26T16:04:27.249Z,19.35
2022-09-26T16:06:58.022Z,19.08
2022-09-26T16:09:45.142Z,18.85
2022-09-26T16:12:16.121Z,18.60
2022-09-26T16:14:51.005Z,18.37
2022-09-26T16:17:21.927Z,18.18
2022-09-26T16:19:53.932Z,17.98
2022-09-26T16:22:46.548Z,17.79
2022-09-26T16:25:17.410Z,17.61
2022-09-26T16:27:51.949Z,17.44
2022-09-26T16:30:25.519Z,17.25
2022-09-26T16:32:56.176Z,17.10
2022-09-26T16:35:29.890Z,16.95
2022-09-26T16:38:05.388Z,16.80
2022-09-26T16:40:35.419Z,16.65
2022-09-26T16:43:08.348Z,16.51
2022-09-26T16:45:36.035Z,16.40
2022-09-26T16:48:04.342Z,16.29
2022-09-26T16:50:34.132Z,16.16
2022-09-26T16:53:04.348Z,16.05
2022-09-26T16:55:35.312Z,15.97
2022-09-26T16:58:05.112Z,15.89
2022-09-26T17:00:52.725Z,15.81
2022-09-26T17:03:32.266Z,15.72
2022-09-26T17:06:00.141Z,15.64
2022-09-26T17:08:28.567Z,15.57
2022-09-26T17:11:01.231Z,15.53
2022-09-26T17:13:34.095Z,15.48
2022-09-26T17:16:03.557Z,15.43
2022-09-26T17:18:34.913Z,15.42
2022-09-26T17:21:03.012Z,15.43
2022-09-26T17:23:40.347Z,15.44
2022-09-26T17:26:21.523Z,15.46
2022-09-26T17:28:53.200Z,15.45
2022-09-26T17:31:21.216Z,15.44
2022-09-26T17:33:53.332Z,15.43
2022-09-26T17:36:27.184Z,15.42
2022-09-26T17:38:59.187Z,15.41
2022-09-26T17:41:28.991Z,15.40
2022-09-26T17:44:00.369Z,15.38
2022-09-26T17:46:28.938Z,15.37
2022-09-26T17:48:56.806Z,15.34
2022-09-26T17:51:25.361Z,15.30
2022-09-26T17:53:52.991Z,15.27
2022-09-26T17:56:21.024Z,15.23
2022-09-26T17:58:51.097Z,15.21
2022-09-26T18:01:28.328Z,15.19
2022-09-26T18:04:00.052Z,15.17
2022-09-26T18:06:33.195Z,15.15
2022-09-26T18:09:07.338Z,15.15
2022-09-26T18:11:36.219Z,15.15
2022-09-26T18:14:07.901Z,15.15
2022-09-26T18:16:35.513Z,15.14
2022-09-26T18:19:07.470Z,15.12
2022-09-26T18:21:36.018Z,15.10
2022-09-26T18:24:07.008Z,15.08
2022-09-26T18:26:47.049Z,15.06
2022-09-26T18:29:36.156Z,15.03
2022-09-26T18:32:11.705Z,14.99
2022-09-26T18:34:39.364Z,14.96
2022-09-26T18:37:06.959Z,14.94
2022-09-26T18:39:35.722Z,14.90
2022-09-26T18:42:09.055Z,14.86
2022-09-26T18:44:36.951Z,14.81
2022-09-26T18:47:11.170Z,14.80
2022-09-26T18:49:38.833Z,14.76
2022-09-26T18:52:13.549Z,14.75
2022-09-26T18:54:45.102Z,14.75
2022-09-26T18:57:29.080Z,14.75
2022-09-26T18:59:59.067Z,14.75
2022-09-26T19:02:32.555Z,14.73
2022-09-26T19:05:02.885Z,14.71
2022-09-26T19:07:33.959Z,14.69
2022-09-26T19:10:01.639Z,14.68
2022-09-26T19:12:31.523Z,14.67
2022-09-26T19:14:59.172Z,14.65
2022-09-26T19:17:26.731Z,14.64
2022-09-26T19:19:54.347Z,14.64
2022-09-26T19:22:22.043Z,14.64
2022-09-26T19:24:56.080Z,14.64
2022-09-26T19:27:28.438Z,14.62
2022-09-26T19:29:59.053Z,14.60
2022-09-26T19:32:31.623Z,14.57
2022-09-26T19:35:25.873Z,14.54
2022-09-26T19:37:53.610Z,14.52
2022-09-26T19:40:22.877Z,14.50
2022-09-26T19:42:50.813Z,14.45
2022-09-26T19:45:19.835Z,14.41
2022-09-26T19:47:53.225Z,14.38
2022-09-26T19:50:25.937Z,14.35
2022-09-26T19:52:56.557Z,14.35
2022-09-26T19:55:27.464Z,14.34
2022-09-26T19:58:00.713Z,14.31
2022-09-26T20:00:29.018Z,14.27
2022-09-26T20:02:57.397Z,14.24
2022-09-26T20:05:26.386Z,14.18
2022-09-26T20:07:53.982Z,14.11
2022-09-26T20:10:25.297Z,14.05
2022-09-26T20:12:53.830Z,14.02
2022-09-26T20:15:21.414Z,13.99
2022-09-26T20:17:49.422Z,13.96
2022-09-26T20:20:22.889Z,13.93
2022-09-26T20:22:53.673Z,13.91
2022-09-26T20:25:27.065Z,13.87
2022-09-26T20:27:56.042Z,13.85
2022-09-26T20:30:40.849Z,13.84
2022-09-26T20:33:10.636Z,13.82
2022-09-26T20:35:43.287Z,13.81
2022-09-26T20:38:21.071Z,13.79
2022-09-26T20:40:49.191Z,13.74
2022-09-26T20:43:26.815Z,13.70
2022-09-26T20:45:54.544Z,13.66
2022-09-26T20:48:25.302Z,13.63
2022-09-26T20:50:53.145Z,13.60
2022-09-26T20:53:24.226Z,13.57
2022-09-26T20:55:54.631Z,13.57
2022-09-26T20:58:22.388Z,13.55
2022-09-26T21:00:50.426Z,13.52
2022-09-26T21:03:21.919Z,13.50
2022-09-26T21:05:49.494Z,13.47
2022-09-26T21:08:33.246Z,13.43
2022-09-26T21:11:00.983Z,13.42
2022-09-26T21:13:28.650Z,13.40
2022-09-26T21:15:56.405Z,13.38
2022-09-26T21:18:27.131Z,13.34
2022-09-26T21:20:59.427Z,13.30
2022-09-26T21:23:27.215Z,13.24
2022-09-26T21:25:54.815Z,13.19
2022-09-26T21:28:27.964Z,13.14
2022-09-26T21:31:01.240Z,13.10
2022-09-26T21:33:28.950Z,13.08
2022-09-26T21:35:57.858Z,13.02
2022-09-26T21:38:26.850Z,12.95
2022-09-26T21:40:59.797Z,12.87
2022-09-26T21:43:31.948Z,12.80
2022-09-26T21:45:59.634Z,12.73
2022-09-26T21:48:27.919Z,12.66
2022-09-26T21:50:58.442Z,12.61
2022-09-26T21:53:37.626Z,12.59
2022-09-26T21:56:14.546Z,12.55
2022-09-26T21:58:43.778Z,12.52
2022-09-26T22:01:12.370Z,12.48
2022-09-26T22:03:40.431Z,12.41
2022-09-26T22:06:10.029Z,12.36
2022-09-26T22:08:39.422Z,12.33
2022-09-26T22:11:11.224Z,12.27
2022-09-26T22:13:38.861Z,12.21
2022-09-26T22:16:09.035Z,12.15
2022-09-26T22:18:38.861Z,12.10
2022-09-26T22:21:08.872Z,12.05
2022-09-26T22:23:36.886Z,12.03
2022-09-26T22:26:04.940Z,12.02
2022-09-26T22:28:32.501Z,12.03
2022-09-26T22:31:05.111Z,12.04
2022-09-26T22:33:34.376Z,12.05
2022-09-26T22:36:02.696Z,12.05
2022-09-26T22:38:32.192Z,12.07
2022-09-26T22:41:03.457Z,12.11
2022-09-26T22:43:33.060Z,12.14
2022-09-26T22:46:06.807Z,12.17
2022-09-26T22:48:36.892Z,12.18
2022-09-26T22:51:05.401Z,12.20
2022-09-26T22:53:36.327Z,12.22
2022-09-26T22:56:05.649Z,12.23
2022-09-26T22:58:38.184Z,12.24
2022-09-26T23:01:09.079Z,12.24
2022-09-26T23:03:37.205Z,12.24
2022-09-26T23:06:05.497Z,12.24
2022-09-26T23:08:34.611Z,12.25
2022-09-26T23:11:03.376Z,12.27
2022-09-26T23:13:32.837Z,12.29
2022-09-26T23:16:09.633Z,12.32
2022-09-26T23:18:39.256Z,12.32
2022-09-26T23:21:15.994Z,12.33
2022-09-26T23:23:46.130Z,12.33
2022-09-26T23:26:17.022Z,12.34
2022-09-26T23:28:44.594Z,12.36
2022-09-26T23:31:12.373Z,12.35
2022-09-26T23:33:40.847Z,12.35
2022-09-26T23:36:08.957Z,12.35
2022-09-26T23:38:38.568Z,12.36
2022-09-26T23:41:08.065Z,12.36
2022-09-26T23:43:36.263Z,12.34
2022-09-26T23:46:04.401Z,12.32
2022-09-26T23:48:32.041Z,12.31
2022-09-26T23:50:59.917Z,12.30
2022-09-26T23:53:27.704Z,12.30
2022-09-26T23:56:13.721Z,12.32
2022-09-26T23:58:41.909Z,12.32
